METAR Data

Data at: 1057 UTC 21 Apr 2021

METAR for:KBVY (Beverly Muni, MA, US)
Text:KBVY 211053Z 15006KT 10SM BKN075 09/06 A2982 RMK AO2 SLP092 T00940061
Temperature: 9.4°C ( 49°F)
Dewpoint: 6.1°C ( 43°F) [RH = 80%]
Pressure (altimeter):29.82 inches Hg (1009.9 mb) [Sea level pressure: 1009.2 mb]
Winds:from the SSE (150 degrees) at 7 MPH (6 knots; 3.1 m/s)
Visibility:10 or more sm (16+ km)
Ceiling:7500 feet AGL
Clouds: broken clouds at 7500 feet AGL